Time;durP1;ratioP1;P1;durP2;ratioP2;P2;SDS_P1;SDS_P2;PMS_P1;PMS_P2;Temp;Humidity;BMP_temperature;BMP_pressure;BME280_temperature;BME280_humidity;BME280_pressure;Samples;Min_cycle;Max_cycle;Signal;HPM_P1;HPM_P2
2024/04/21 00:04:21;;;;;;;0.60;0.40;;;;;;;8.08;68.72;100492.25;11068477;26;20040;-58
2024/04/21 00:09:23;;;;;;;3.47;0.47;;;;;;;8.04;68.82;100486.38;11066985;26;20535;-58
2024/04/21 00:14:24;;;;;;;2.58;0.40;;;;;;;8.10;68.92;100471.53;11068312;26;20748;-59
2024/04/21 00:19:26;;;;;;;1.08;0.40;;;;;;;8.12;68.76;100466.84;11068255;26;20004;-59
2024/04/21 00:24:30;;;;;;;2.35;0.95;;;;;;;8.07;68.89;100459.28;11081704;26;20455;-58
2024/04/21 00:29:31;;;;;;;1.60;0.40;;;;;;;8.06;68.99;100454.09;11075299;26;20009;-58
2024/04/21 00:34:33;;;;;;;1.23;0.55;;;;;;;8.04;69.04;100451.56;11077242;26;20004;-59
2024/04/21 00:39:34;;;;;;;1.42;0.50;;;;;;;8.04;68.97;100451.56;11077123;26;20001;-59
2024/04/21 00:44:37;;;;;;;1.35;0.30;;;;;;;8.06;68.85;100441.53;11080196;26;20012;-58
2024/04/21 00:49:38;;;;;;;2.78;0.40;;;;;;;8.06;68.57;100438.88;11085566;26;19996;-57
2024/04/21 00:54:40;;;;;;;2.50;0.30;;;;;;;8.05;68.53;100447.06;11081391;26;20009;-57
2024/04/21 00:59:43;;;;;;;1.10;0.20;;;;;;;7.99;68.66;100436.97;11074030;26;20012;-57
2024/04/21 01:04:44;;;;;;;0.50;0.22;;;;;;;7.88;68.69;100435.41;11075760;26;20005;-57
2024/04/21 01:09:46;;;;;;;0.40;0.20;;;;;;;7.85;68.24;100443.75;11076655;26;20008;-60
2024/04/21 01:14:48;;;;;;;0.45;0.17;;;;;;;7.76;68.45;100440.16;11073730;26;19997;-59
2024/04/21 01:19:49;;;;;;;0.30;0.10;;;;;;;7.65;68.23;100443.91;11069672;26;20245;-61
2024/04/21 01:24:51;;;;;;;0.15;0.10;;;;;;;7.66;67.69;100437.59;11066706;26;20013;-61
2024/04/21 01:29:52;;;;;;;1.25;0.10;;;;;;;7.50;67.38;100445.44;11070668;26;20362;-59
2024/04/21 01:34:54;;;;;;;0.10;0.10;;;;;;;7.38;67.64;100438.66;11082991;26;20440;-61
2024/04/21 01:39:56;;;;;;;0.00;0.00;;;;;;;7.25;67.77;100444.41;11074895;26;20448;-56
2024/04/21 01:44:57;;;;;;;0.20;0.05;;;;;;;7.26;67.47;100440.72;11071340;26;20020;-60
2024/04/21 01:49:59;;;;;;;0.47;0.10;;;;;;;7.29;67.32;100446.59;11074299;26;20419;-58
2024/04/21 01:55:00;;;;;;;0.57;0.00;;;;;;;7.21;66.84;100441.19;11091547;26;20643;-58
2024/04/21 02:00:04;;;;;;;1.27;0.22;;;;;;;7.11;66.83;100451.94;11084463;26;20009;-59
2024/04/21 02:05:06;;;;;;;0.28;0.00;;;;;;;7.09;66.84;100459.28;11085130;26;20356;-58
2024/04/21 02:10:08;;;;;;;0.63;0.10;;;;;;;7.04;66.90;100455.38;11073636;26;20016;-58
2024/04/21 02:15:10;;;;;;;2.70;0.30;;;;;;;6.99;66.89;100454.97;11082833;26;20025;-58
2024/04/21 02:20:11;;;;;;;3.08;0.43;;;;;;;7.04;66.57;100458.88;11067966;26;20032;-59
2024/04/21 02:25:14;;;;;;;4.53;0.20;;;;;;;7.02;66.48;100457.34;11083119;26;20012;-58
2024/04/21 02:30:16;;;;;;;1.75;0.20;;;;;;;6.85;66.67;100459.84;11082032;26;20019;-58
2024/04/21 02:35:17;;;;;;;11.35;0.90;;;;;;;6.73;66.66;100466.34;11086945;26;20005;-56
2024/04/21 02:40:19;;;;;;;0.77;0.25;;;;;;;6.65;66.11;100469.75;11081230;26;20093;-58
2024/04/21 02:45:21;;;;;;;2.60;0.32;;;;;;;6.67;66.22;100467.78;11081170;26;19997;-59
2024/04/21 02:50:22;;;;;;;5.25;0.50;;;;;;;6.65;65.77;100456.41;11084580;26;20554;-58
2024/04/21 02:55:24;;;;;;;3.03;0.30;;;;;;;6.68;65.48;100453.47;11082840;26;19997;-59
2024/04/21 03:00:25;;;;;;;4.60;0.43;;;;;;;6.68;65.29;100450.78;11084157;26;19996;-59
2024/04/21 03:05:27;;;;;;;4.55;0.40;;;;;;;6.64;65.38;100453.91;11079949;26;20066;-62
2024/04/21 03:10:29;;;;;;;13.13;0.95;;;;;;;6.63;65.20;100450.38;11078526;26;19997;-60
2024/04/21 03:15:31;;;;;;;6.60;0.40;;;;;;;6.65;64.70;100447.56;11074246;26;20047;-61
2024/04/21 03:20:33;;;;;;;6.13;0.40;;;;;;;6.55;64.86;100460.97;11084698;26;20024;-61
2024/04/21 03:25:35;;;;;;;2.95;0.32;;;;;;;6.54;64.89;100462.81;11078834;26;20020;-61
2024/04/21 03:30:39;;;;;;;2.97;0.40;;;;;;;6.47;64.96;100460.84;11082607;26;20008;-61
2024/04/21 03:35:41;;;;;;;2.08;0.40;;;;;;;6.35;65.03;100457.53;11076415;26;20355;-61
2024/04/21 03:40:42;;;;;;;2.47;0.30;;;;;;;6.34;65.04;100453.19;11076903;26;20009;-61
2024/04/21 03:45:44;;;;;;;4.68;0.60;;;;;;;6.30;64.30;100452.63;11074246;26;20019;-60
2024/04/21 03:50:46;;;;;;;4.95;1.02;;;;;;;6.25;64.80;100462.06;11068118;26;20016;-62
2024/04/21 03:55:49;;;;;;;3.88;0.40;;;;;;;6.15;64.05;100446.91;11078204;26;20001;-62
2024/04/21 04:00:50;;;;;;;4.28;0.52;;;;;;;6.11;64.08;100458.88;11082317;26;20051;-61
2024/04/21 04:05:52;;;;;;;4.53;0.52;;;;;;;6.15;63.95;100465.59;11083841;26;20000;-62
2024/04/21 04:10:54;;;;;;;8.55;0.68;;;;;;;6.11;63.75;100466.03;11073142;26;20004;-61
2024/04/21 04:15:55;;;;;;;5.40;0.47;;;;;;;6.15;63.91;100459.41;11078971;26;20020;-61
2024/04/21 04:20:57;;;;;;;5.03;1.30;;;;;;;6.08;63.86;100459.16;11091085;26;20016;-68
2024/04/21 04:25:59;;;;;;;3.10;0.50;;;;;;;6.03;63.99;100452.56;11118974;26;20051;-64
2024/04/21 04:31:00;;;;;;;5.43;0.55;;;;;;;5.90;63.97;100464.34;11116600;26;20020;-66
2024/04/21 04:36:03;;;;;;;5.00;0.50;;;;;;;5.82;64.53;100458.03;11121058;26;20001;-61
2024/04/21 04:41:05;;;;;;;4.63;0.70;;;;;;;5.75;64.59;100471.97;11127674;26;20021;-61
2024/04/21 04:46:07;;;;;;;5.82;0.85;;;;;;;5.72;64.13;100466.91;11128474;26;20020;-62
2024/04/21 04:51:08;;;;;;;4.70;0.70;;;;;;;5.64;64.24;100472.09;11124115;26;20016;-61
2024/04/21 04:56:10;;;;;;;4.45;0.60;;;;;;;5.64;64.23;100463.25;11141582;26;20006;-62
2024/04/21 05:01:11;;;;;;;9.48;1.20;;;;;;;5.57;64.28;100465.66;11129853;26;19997;-60
2024/04/21 05:06:13;;;;;;;4.63;1.02;;;;;;;5.50;64.66;100461.88;11130901;26;19993;-60
2024/04/21 05:11:15;;;;;;;4.60;0.43;;;;;;;5.50;64.65;100469.84;11124015;26;20012;-57
2024/04/21 05:16:18;;;;;;;4.60;0.40;;;;;;;5.50;64.36;100472.53;11143738;26;20012;-57
2024/04/21 05:21:20;;;;;;;3.60;0.45;;;;;;;5.45;64.68;100469.44;11155996;26;20110;-56
2024/04/21 05:26:22;;;;;;;3.67;0.85;;;;;;;5.55;64.26;100467.63;11113515;26;20036;-57
2024/04/21 05:31:24;;;;;;;8.13;0.57;;;;;;;5.68;64.16;100470.00;11151728;26;20024;-57
2024/04/21 05:36:26;;;;;;;7.15;0.85;;;;;;;5.65;64.05;100468.47;11186605;26;20015;-57
2024/04/21 05:41:28;;;;;;;4.30;0.50;;;;;;;5.67;64.65;100471.00;11151870;26;20015;-57
2024/04/21 05:46:29;;;;;;;4.65;0.98;;;;;;;5.71;64.29;100469.72;11145141;26;20004;-57
2024/04/21 05:51:31;;;;;;;14.57;0.98;;;;;;;5.68;64.33;100475.31;11150979;26;20004;-57
2024/04/21 05:56:34;;;;;;;4.00;0.88;;;;;;;5.66;64.39;100478.13;11134444;26;20029;-62
2024/04/21 06:01:36;;;;;;;2.20;0.50;;;;;;;5.61;64.79;100475.06;11134498;26;19993;-60
2024/04/21 06:06:38;;;;;;;3.00;0.40;;;;;;;5.56;64.84;100475.47;11138998;26;20050;-64
2024/04/21 06:11:39;;;;;;;4.57;0.40;;;;;;;5.55;65.10;100484.47;11129543;26;20015;-65
2024/04/21 06:16:41;;;;;;;5.75;0.40;;;;;;;5.68;64.69;100481.50;11140889;26;20023;-61
2024/04/21 06:21:43;;;;;;;8.90;0.60;;;;;;;5.89;64.78;100483.19;11135473;26;20469;-57
2024/04/21 06:26:46;;;;;;;4.03;0.60;;;;;;;6.14;64.25;100479.94;11129577;26;20017;-58
2024/04/21 06:31:50;;;;;;;4.10;0.82;;;;;;;6.27;64.04;100489.44;11112941;26;20004;-57
2024/04/21 06:36:52;;;;;;;3.17;0.28;;;;;;;6.43;63.54;100481.66;11139663;26;20009;-57
2024/04/21 06:41:53;;;;;;;6.38;0.60;;;;;;;6.58;63.79;100473.19;11092799;26;20004;-62
2024/04/21 06:46:55;;;;;;;2.85;0.40;;;;;;;6.81;63.04;100477.13;11081831;26;20001;-62
2024/04/21 06:51:56;;;;;;;6.85;0.60;;;;;;;7.08;62.74;100473.63;11070138;26;20012;-62
2024/04/21 06:56:58;;;;;;;2.15;0.30;;;;;;;7.03;62.48;100483.94;11079958;26;20032;-62
2024/04/21 07:02:00;;;;;;;3.78;0.30;;;;;;;7.40;61.60;100482.13;11077317;26;20019;-62
2024/04/21 07:07:02;;;;;;;6.28;0.30;;;;;;;7.54;61.69;100494.97;11078557;26;20020;-62
2024/04/21 07:12:04;;;;;;;3.78;1.10;;;;;;;7.14;62.18;100496.25;11075436;26;20015;-62
2024/04/21 07:17:05;;;;;;;4.63;0.50;;;;;;;7.22;61.93;100496.31;11071357;26;20032;-62
2024/04/21 07:22:07;;;;;;;4.00;0.50;;;;;;;7.13;61.54;100499.91;11080102;26;20004;-62
2024/04/21 07:27:09;;;;;;;2.03;0.40;;;;;;;7.31;61.42;100514.16;11077616;26;20019;-62
2024/04/21 07:32:10;;;;;;;3.00;0.50;;;;;;;6.87;62.12;100526.47;11091773;26;20011;-62
2024/04/21 07:37:12;;;;;;;6.80;0.57;;;;;;;6.34;63.56;100528.78;11102398;21;20024;-87
2024/04/21 07:42:14;;;;;;;4.90;0.50;;;;;;;6.32;64.03;100535.25;11074036;26;20001;-88
2024/04/21 07:47:15;;;;;;;3.00;0.40;;;;;;;6.01;64.80;100535.44;11075763;26;20020;-88
2024/04/21 07:52:17;;;;;;;2.28;0.30;;;;;;;5.92;65.31;100541.56;11065743;26;20104;-88
2024/04/21 07:57:19;;;;;;;6.13;0.50;;;;;;;5.86;65.89;100548.31;10992630;21;20108;-63
2024/04/21 08:02:20;;;;;;;4.88;0.60;;;;;;;5.82;66.10;100551.41;10934988;26;20003;-66
2024/04/21 08:07:22;;;;;;;9.27;0.95;;;;;;;5.88;66.45;100562.34;10949501;26;20010;-69
2024/04/21 08:12:24;;;;;;;1.10;0.50;;;;;;;5.71;67.14;100571.06;10945015;26;20006;-67
2024/04/21 08:17:26;;;;;;;0.73;0.30;;;;;;;5.40;67.88;100570.31;10925279;26;20010;-66
2024/04/21 08:22:27;;;;;;;1.45;0.47;;;;;;;5.10;68.55;100567.56;10931101;26;20006;-68
2024/04/21 08:27:29;;;;;;;2.85;0.40;;;;;;;5.26;68.42;100593.69;10929776;26;20018;-65
2024/04/21 08:32:32;;;;;;;1.10;0.40;;;;;;;5.28;68.47;100596.25;10933479;26;20014;-68
2024/04/21 08:37:34;;;;;;;1.20;0.32;;;;;;;4.91;69.42;100588.78;10958349;26;20038;-60
2024/04/21 08:42:36;;;;;;;1.52;0.57;;;;;;;4.88;69.98;100595.25;10930273;26;20053;-61
2024/04/21 08:47:39;;;;;;;1.85;0.40;;;;;;;5.08;69.89;100608.66;10924252;26;20017;-61
2024/04/21 08:52:40;;;;;;;1.25;0.30;;;;;;;5.18;69.81;100604.19;10936044;26;20024;-62
2024/04/21 08:57:42;;;;;;;0.20;0.10;;;;;;;5.02;70.95;100614.53;10934580;26;20018;-61
2024/04/21 09:02:44;;;;;;;0.38;0.20;;;;;;;5.06;71.18;100608.78;10945751;26;20007;-62
2024/04/21 09:07:46;;;;;;;0.50;0.22;;;;;;;5.10;70.95;100610.19;10936513;26;20485;-62
2024/04/21 09:12:49;;;;;;;0.35;0.25;;;;;;;5.23;71.39;100625.94;10933450;26;20014;-61
2024/04/21 09:17:51;;;;;;;0.70;0.40;;;;;;;5.26;71.49;100624.84;10945221;26;20029;-62
2024/04/21 09:22:52;;;;;;;1.17;0.40;;;;;;;5.26;71.71;100627.50;10941494;26;20014;-61
2024/04/21 09:27:54;;;;;;;1.45;0.60;;;;;;;5.29;71.85;100629.88;10941926;26;20010;-62
2024/04/21 09:32:56;;;;;;;1.50;0.60;;;;;;;5.34;72.71;100625.00;10936407;26;20342;-62
2024/04/21 09:37:58;;;;;;;4.00;0.82;;;;;;;5.50;72.26;100635.16;10932304;26;20010;-63
2024/04/21 09:43:00;;;;;;;3.20;1.40;;;;;;;5.69;72.55;100627.22;10947266;26;20006;-62
2024/04/21 09:48:02;;;;;;;4.22;1.33;;;;;;;6.02;72.05;100627.81;10938198;26;20351;-62
2024/04/21 09:53:05;;;;;;;3.47;1.02;;;;;;;6.17;72.48;100625.59;10950151;26;20001;-61
2024/04/21 09:58:11;;;;;;;2.20;0.88;;;;;;;6.56;72.26;100628.25;10954413;26;20006;-61
2024/04/21 10:03:15;;;;;;;3.13;1.50;;;;;;;6.93;71.95;100625.63;10956285;26;20006;-58
2024/04/21 10:08:26;;;;;;;3.40;1.20;;;;;;;7.31;71.50;100617.59;10976428;26;20009;-59
2024/04/21 10:13:32;;;;;;;1.10;1.00;;;;;;;7.63;71.74;100617.13;10981627;26;20021;-58
2024/04/21 10:18:33;;;;;;;2.22;1.00;;;;;;;7.85;71.15;100628.41;10963974;26;20051;-59
2024/04/21 10:23:35;;;;;;;1.75;0.90;;;;;;;7.92;71.17;100635.66;10991497;26;20016;-57
2024/04/21 10:28:37;;;;;;;2.15;0.80;;;;;;;7.95;70.80;100634.53;10999495;26;20427;-58
2024/04/21 10:33:40;;;;;;;4.53;1.13;;;;;;;8.13;70.63;100627.31;10965466;26;20110;-60
2024/04/21 10:38:52;;;;;;;2.92;0.98;;;;;;;8.39;69.96;100631.91;10965262;26;20014;-58
2024/04/21 10:44:01;;;;;;;1.02;0.63;;;;;;;8.59;69.38;100629.06;10996539;26;20033;-60
2024/04/21 10:49:04;;;;;;;1.75;1.05;;;;;;;8.76;69.20;100636.25;10970671;26;20005;-59
2024/04/21 10:54:11;;;;;;;3.30;0.73;;;;;;;8.87;68.84;100633.31;10962828;26;20030;-59
2024/04/21 10:59:13;;;;;;;1.02;0.70;;;;;;;8.99;68.41;100639.25;10966673;26;20024;-61
2024/04/21 11:04:15;;;;;;;2.58;1.00;;;;;;;9.48;67.49;100639.50;10948469;26;20009;-62
2024/04/21 11:09:17;;;;;;;2.40;0.70;;;;;;;9.87;66.04;100641.63;10925086;26;20020;-61
2024/04/21 11:14:19;;;;;;;1.17;0.70;;;;;;;10.43;65.00;100633.81;10935761;26;20091;-62
2024/04/21 11:19:21;;;;;;;1.50;1.05;;;;;;;10.82;63.89;100629.56;10932703;26;20006;-62
2024/04/21 11:24:23;;;;;;;2.40;0.73;;;;;;;11.18;63.11;100632.69;10934269;26;20009;-62
2024/04/21 11:29:24;;;;;;;0.98;0.60;;;;;;;11.29;62.36;100642.25;10932020;26;20369;-62
2024/04/21 11:34:29;;;;;;;0.85;0.60;;;;;;;11.14;61.92;100642.13;10935811;26;20409;-62
2024/04/21 11:39:30;;;;;;;2.30;0.60;;;;;;;11.11;61.45;100645.16;10938575;26;20017;-62
2024/04/21 11:44:32;;;;;;;1.48;0.52;;;;;;;11.23;60.70;100651.84;10931250;26;20016;-62
2024/04/21 11:49:34;;;;;;;2.30;0.57;;;;;;;10.96;61.13;100653.09;10938648;26;20021;-62
2024/04/21 11:54:35;;;;;;;2.63;0.73;;;;;;;10.87;60.62;100665.72;10933304;26;20006;-62
2024/04/21 11:59:39;;;;;;;0.80;0.70;;;;;;;11.12;60.09;100652.22;10942312;26;20362;-62
2024/04/21 12:04:41;;;;;;;0.90;0.70;;;;;;;11.44;58.73;100677.38;10938442;26;20021;-63
2024/04/21 12:09:43;;;;;;;1.35;0.85;;;;;;;13.44;55.24;100662.91;10936690;26;20068;-63
2024/04/21 12:14:44;;;;;;;0.80;0.60;;;;;;;13.15;55.47;100674.53;10930732;26;20021;-63
2024/04/21 12:19:46;;;;;;;2.35;0.70;;;;;;;12.09;57.31;100682.47;10931375;26;20001;-63
2024/04/21 12:24:47;;;;;;;1.10;0.70;;;;;;;11.71;57.03;100690.38;10934108;26;20025;-63
2024/04/21 12:29:49;;;;;;;2.05;1.23;;;;;;;11.88;56.39;100691.13;10936544;26;20009;-63
2024/04/21 12:34:50;;;;;;;2.17;0.75;;;;;;;12.21;54.73;100692.84;10934260;26;20021;-62
2024/04/21 12:39:52;;;;;;;1.23;0.50;;;;;;;13.18;53.26;100684.94;10934149;26;19998;-64
2024/04/21 12:44:53;;;;;;;0.80;0.63;;;;;;;14.59;51.08;100671.28;10939665;26;20329;-63
2024/04/21 12:49:55;;;;;;;1.02;0.80;;;;;;;15.64;50.02;100685.78;10935934;26;20010;-64
2024/04/21 12:54:56;;;;;;;1.25;0.90;;;;;;;19.63;42.96;100647.44;10936718;26;20454;-64
2024/04/21 12:59:58;;;;;;;1.60;0.65;;;;;;;22.76;38.54;100643.56;10938505;26;20002;-64
2024/04/21 13:04:59;;;;;;;0.82;0.50;;;;;;;22.70;38.88;100663.75;10925588;26;20555;-65
2024/04/21 13:10:01;;;;;;;1.45;0.50;;;;;;;22.92;37.96;100675.63;10932728;26;20751;-64
2024/04/21 13:15:03;;;;;;;4.97;0.63;;;;;;;23.26;36.63;100672.03;10934386;26;20011;-64
2024/04/21 13:20:05;;;;;;;1.05;0.68;;;;;;;22.74;36.39;100673.97;10938790;26;20081;-65
2024/04/21 13:25:08;;;;;;;0.85;0.50;;;;;;;20.09;39.72;100677.94;10946571;26;20016;-64
2024/04/21 13:30:10;;;;;;;0.47;0.40;;;;;;;21.64;36.44;100683.38;10939734;26;20388;-59
2024/04/21 13:35:11;;;;;;;0.73;0.40;;;;;;;23.14;33.98;100683.13;10937984;26;20717;-59
2024/04/21 13:40:13;;;;;;;1.42;0.47;;;;;;;22.88;34.52;100682.69;10937721;26;20006;-62
2024/04/21 13:45:14;;;;;;;0.40;0.40;;;;;;;20.66;36.90;100696.66;10935765;26;20003;-64
2024/04/21 13:50:16;;;;;;;1.60;0.50;;;;;;;19.36;37.59;100696.81;10943644;26;20014;-60
2024/04/21 13:55:18;;;;;;;1.08;0.50;;;;;;;18.94;37.67;100701.19;10944187;26;20016;-59
2024/04/21 14:00:19;;;;;;;0.63;0.47;;;;;;;18.34;37.76;100696.97;10937206;26;20009;-59
2024/04/21 14:05:21;;;;;;;1.17;0.47;;;;;;;18.07;38.37;100706.31;10947905;26;20014;-63
2024/04/21 14:10:22;;;;;;;3.38;0.57;;;;;;;18.95;36.60;100697.41;10951432;26;20352;-60
2024/04/21 14:15:24;;;;;;;1.63;0.50;;;;;;;19.48;35.99;100694.16;10937126;26;20005;-60
2024/04/21 14:20:27;;;;;;;1.05;0.52;;;;;;;20.64;34.23;100709.72;10944282;26;20013;-59
2024/04/21 14:25:28;;;;;;;2.38;0.70;;;;;;;21.22;33.67;100717.16;10947129;26;20012;-60
2024/04/21 14:30:30;;;;;;;0.55;0.50;;;;;;;19.91;34.46;100715.09;10945759;26;20009;-58
2024/04/21 14:35:32;;;;;;;2.13;0.50;;;;;;;20.57;33.26;100721.53;10946210;26;20006;-58
2024/04/21 14:40:33;;;;;;;1.20;0.45;;;;;;;20.27;33.26;100729.75;10942831;26;20017;-60
2024/04/21 14:45:42;;;;;;;1.48;0.30;;;;;;;19.97;32.79;100732.47;10949727;26;20006;-60
2024/04/21 14:51:13;;;;;;;1.02;0.40;;;;;;;18.97;32.94;100742.44;10948140;26;20129;-59
2024/04/21 14:56:20;;;;;;;0.63;0.40;;;;;;;19.07;32.77;100750.09;10926473;26;20018;-61
2024/04/21 15:01:21;;;;;;;1.80;0.60;;;;;;;19.33;33.59;100745.47;10936836;26;20358;-60
2024/04/21 15:06:23;;;;;;;1.13;0.50;;;;;;;19.09;33.60;100752.63;10939171;26;20007;-59
2024/04/21 15:11:25;;;;;;;0.90;0.50;;;;;;;19.06;33.85;100737.56;10942442;26;20006;-59
2024/04/21 15:16:29;;;;;;;1.63;0.60;;;;;;;18.41;34.13;100752.22;10941242;26;20712;-61
2024/04/21 15:21:33;;;;;;;0.77;0.50;;;;;;;17.83;34.61;100772.13;10949132;26;20031;-59
2024/04/21 15:26:35;;;;;;;1.23;1.00;;;;;;;17.18;35.04;100780.16;10941000;26;20006;-59
2024/04/21 15:31:37;;;;;;;0.80;0.63;;;;;;;16.61;35.96;100778.78;10936396;26;20535;-62
2024/04/21 15:36:38;;;;;;;1.45;0.50;;;;;;;15.68;36.74;100795.47;10939915;26;20005;-59
2024/04/21 15:41:40;;;;;;;0.85;0.52;;;;;;;14.94;37.59;100810.25;10948213;26;20005;-62
2024/04/21 15:46:42;;;;;;;1.58;0.70;;;;;;;14.67;37.91;100818.13;10940977;26;21083;-62
2024/04/21 15:51:44;;;;;;;0.90;0.70;;;;;;;14.65;38.14;100808.50;10942718;26;20021;-62
2024/04/21 15:56:45;;;;;;;1.10;0.70;;;;;;;14.03;38.68;100821.44;10933951;26;20024;-62
2024/04/21 16:01:47;;;;;;;2.20;0.70;;;;;;;13.81;39.08;100823.22;10938435;26;20006;-62
2024/04/21 16:06:48;;;;;;;1.10;0.60;;;;;;;13.56;39.34;100832.59;10941222;26;20009;-61
2024/04/21 16:11:50;;;;;;;4.50;0.90;;;;;;;13.52;39.56;100845.63;10938546;26;20013;-61
2024/04/21 16:16:52;;;;;;;1.08;0.65;;;;;;;13.12;40.21;100842.22;10929702;26;20007;-61
2024/04/21 16:21:53;;;;;;;2.28;0.80;;;;;;;13.03;40.85;100841.47;10928326;26;20554;-62
2024/04/21 16:26:55;;;;;;;2.50;0.90;;;;;;;12.81;41.27;100863.88;10928267;26;20427;-61
2024/04/21 16:31:56;;;;;;;2.08;0.73;;;;;;;12.79;41.32;100865.91;10939552;26;20026;-61
2024/04/21 16:36:58;;;;;;;2.55;1.00;;;;;;;12.65;41.63;100870.19;10932650;26;20029;-61
2024/04/21 16:42:00;;;;;;;1.45;0.68;;;;;;;12.77;41.30;100857.97;10929279;26;20016;-61
2024/04/21 16:47:04;;;;;;;1.92;0.68;;;;;;;12.81;41.35;100874.66;10937951;26;20010;-61
2024/04/21 16:52:06;;;;;;;2.92;0.90;;;;;;;13.22;41.22;100869.81;10936357;26;20015;-58
2024/04/21 16:57:15;;;;;;;0.93;0.68;;;;;;;13.55;40.86;100869.59;10952400;26;20024;-58
2024/04/21 17:02:24;;;;;;;1.30;0.60;;;;;;;13.60;40.63;100872.56;10947703;26;20014;-59
2024/04/21 17:07:34;;;;;;;1.95;0.85;;;;;;;13.95;40.34;100864.78;10939114;26;20029;-59
2024/04/21 17:12:36;;;;;;;1.10;0.63;;;;;;;14.40;39.47;100871.03;10941776;26;20038;-59
2024/04/21 17:17:38;;;;;;;1.10;0.82;;;;;;;14.74;39.05;100883.13;10938786;26;20010;-59
2024/04/21 17:22:40;;;;;;;3.40;1.00;;;;;;;14.44;39.38;100885.03;10953292;26;20018;-59
2024/04/21 17:27:43;;;;;;;1.23;0.50;;;;;;;14.15;39.39;100885.88;10960625;26;20006;-57
2024/04/21 17:32:45;;;;;;;1.55;0.65;;;;;;;13.48;40.29;100903.75;10957640;26;20013;-58
2024/04/21 17:37:48;;;;;;;2.97;0.70;;;;;;;12.94;40.91;100914.56;10957248;26;20017;-58
2024/04/21 17:42:51;;;;;;;2.50;1.00;;;;;;;12.26;41.27;100916.84;10957736;26;20001;-62
2024/04/21 17:47:56;;;;;;;1.52;0.80;;;;;;;11.82;41.56;100922.66;10984028;26;20002;-63
2024/04/21 17:52:58;;;;;;;3.45;0.95;;;;;;;11.34;42.16;100929.72;10979062;26;20038;-63
2024/04/21 17:58:00;;;;;;;1.38;0.70;;;;;;;10.97;42.29;100945.28;10980098;26;20013;-62
2024/04/21 18:03:02;;;;;;;1.20;0.80;;;;;;;10.68;42.96;100949.25;10982126;26;20069;-64
2024/04/21 18:08:04;;;;;;;3.85;0.90;;;;;;;10.41;43.29;100952.97;10959046;26;20022;-65
2024/04/21 18:13:05;;;;;;;1.67;1.13;;;;;;;10.14;44.00;100956.63;10982323;26;20006;-63
2024/04/21 18:18:07;;;;;;;2.70;1.40;;;;;;;9.90;44.47;100968.88;10974282;26;19999;-64
2024/04/21 18:23:09;;;;;;;3.03;1.00;;;;;;;9.73;44.88;100976.00;10980439;26;20020;-65
2024/04/21 18:28:10;;;;;;;2.45;1.38;;;;;;;9.49;45.35;100978.44;10977198;26;20034;-65
2024/04/21 18:33:12;;;;;;;1.73;1.00;;;;;;;9.27;45.60;100974.38;10984902;26;20378;-65
2024/04/21 18:38:14;;;;;;;3.33;0.88;;;;;;;9.10;46.05;100976.91;10980446;26;20029;-61
2024/04/21 18:43:16;;;;;;;1.83;0.73;;;;;;;8.98;46.32;100966.50;10940320;26;20416;-61
2024/04/21 18:48:17;;;;;;;1.65;0.80;;;;;;;8.92;46.70;100976.00;10937383;26;20006;-63
2024/04/21 18:53:20;;;;;;;5.93;1.02;;;;;;;8.79;46.75;100971.00;10930370;26;20026;-60
2024/04/21 18:58:21;;;;;;;4.63;1.55;;;;;;;8.67;46.78;100983.75;10940592;26;20001;-60
2024/04/21 19:03:23;;;;;;;3.47;1.50;;;;;;;8.53;47.26;100989.56;10944956;26;20002;-61
2024/04/21 19:08:28;;;;;;;2.00;0.90;;;;;;;8.42;47.13;100990.59;10933322;26;20007;-60
2024/04/21 19:13:30;;;;;;;1.77;0.80;;;;;;;8.36;47.46;100996.53;10941807;26;20002;-59
2024/04/21 19:18:33;;;;;;;2.20;0.70;;;;;;;8.33;47.50;100995.00;10942863;26;20065;-59
2024/04/21 19:23:35;;;;;;;3.88;0.90;;;;;;;8.31;47.59;101004.13;10944378;26;20081;-65
2024/04/21 19:28:38;;;;;;;1.60;0.93;;;;;;;8.34;47.68;101003.84;10938358;26;20021;-61
2024/04/21 19:33:42;;;;;;;2.88;1.08;;;;;;;8.39;47.87;101001.56;10938784;26;20009;-60
2024/04/21 19:38:45;;;;;;;1.30;0.70;;;;;;;8.39;47.85;101012.28;10939192;26;20005;-60
2024/04/21 19:43:48;;;;;;;1.75;1.10;;;;;;;8.41;47.75;101007.69;10938650;26;20003;-59
2024/04/21 19:48:50;;;;;;;2.03;1.00;;;;;;;8.41;47.90;101005.00;10923939;26;20010;-58
2024/04/21 19:53:51;;;;;;;1.88;1.00;;;;;;;8.34;48.09;101014.56;10930640;26;20075;-60
2024/04/21 19:58:54;;;;;;;1.95;0.80;;;;;;;8.23;48.45;101014.72;10936519;26;20006;-60
2024/04/21 20:03:56;;;;;;;1.48;0.80;;;;;;;8.21;48.53;101019.38;10923906;26;20002;-59
2024/04/21 20:08:57;;;;;;;2.25;0.90;;;;;;;8.13;48.68;101015.59;10924553;26;20005;-61
2024/04/21 20:13:59;;;;;;;1.20;0.70;;;;;;;8.02;48.78;101012.25;10935527;26;20445;-58
2024/04/21 20:19:00;;;;;;;1.40;0.73;;;;;;;7.89;48.89;101007.19;10930431;26;20037;-57
2024/04/21 20:24:02;;;;;;;2.13;0.95;;;;;;;7.74;48.94;101012.09;10936279;26;20005;-60
2024/04/21 20:29:04;;;;;;;0.80;0.52;;;;;;;7.59;48.99;101013.53;10936776;26;20010;-58
2024/04/21 20:34:05;;;;;;;1.80;0.80;;;;;;;7.42;49.30;101015.06;10927506;26;20006;-58
2024/04/21 20:39:07;;;;;;;1.80;0.90;;;;;;;7.27;49.79;101014.63;10947530;26;20020;-60
2024/04/21 20:44:08;;;;;;;1.52;0.85;;;;;;;7.13;49.66;101016.69;10934101;26;20017;-58
2024/04/21 20:49:10;;;;;;;1.83;1.10;;;;;;;7.03;49.93;101021.19;10934292;26;20526;-58
2024/04/21 20:54:11;;;;;;;3.35;0.85;;;;;;;6.91;49.96;101031.13;10937722;26;19998;-60
2024/04/21 20:59:13;;;;;;;1.85;0.70;;;;;;;6.80;50.02;101036.56;10940099;26;20511;-58
2024/04/21 21:04:15;;;;;;;1.88;1.02;;;;;;;6.73;50.00;101032.72;10934675;26;20439;-58
2024/04/21 21:09:17;;;;;;;2.80;0.80;;;;;;;6.64;50.00;101039.72;10940605;26;20481;-57
2024/04/21 21:14:19;;;;;;;4.10;1.55;;;;;;;6.58;49.88;101037.59;10934343;26;20657;-58
2024/04/21 21:19:20;;;;;;;7.32;1.70;;;;;;;6.54;50.23;101044.19;10940838;26;20014;-59
2024/04/21 21:24:22;;;;;;;5.75;1.80;;;;;;;6.47;50.11;101051.03;10930982;26;20835;-58
2024/04/21 21:29:23;;;;;;;6.88;1.55;;;;;;;6.40;50.41;101049.84;10936884;26;20433;-58
2024/04/21 21:34:27;;;;;;;4.05;1.42;;;;;;;6.32;50.22;101059.38;10930714;26;20022;-59
2024/04/21 21:39:28;;;;;;;3.50;0.98;;;;;;;6.25;50.50;101060.88;10933117;26;20006;-59
2024/04/21 21:44:31;;;;;;;2.05;0.90;;;;;;;6.14;50.92;101063.59;10933792;26;20492;-59
2024/04/21 21:49:32;;;;;;;1.75;0.80;;;;;;;6.05;50.81;101062.56;10937105;26;19998;-59
2024/04/21 21:54:34;;;;;;;2.03;0.93;;;;;;;5.93;51.39;101058.22;10932372;26;20002;-59
2024/04/21 21:59:36;;;;;;;2.42;1.05;;;;;;;5.81;51.47;101046.75;10931119;26;20042;-59
2024/04/21 22:04:38;;;;;;;1.67;1.05;;;;;;;5.75;51.53;101053.44;10929594;26;20018;-60
2024/04/21 22:09:40;;;;;;;1.42;0.90;;;;;;;5.67;52.16;101047.91;10930615;26;20002;-59
2024/04/21 22:14:41;;;;;;;2.95;0.60;;;;;;;5.60;51.76;101049.38;10937039;26;20015;-59
2024/04/21 22:19:43;;;;;;;2.08;0.95;;;;;;;5.52;52.04;101051.81;10931925;26;20583;-59
2024/04/21 22:24:45;;;;;;;1.83;0.82;;;;;;;5.42;52.68;101059.72;10935145;26;20052;-59
2024/04/21 22:29:46;;;;;;;1.98;0.80;;;;;;;5.34;52.41;101055.00;10934707;26;20032;-60
2024/04/21 22:34:52;;;;;;;5.50;0.93;;;;;;;5.29;52.62;101059.03;10934671;26;20507;-58
2024/04/21 22:39:53;;;;;;;1.75;1.05;;;;;;;5.30;52.76;101053.56;10929397;26;20014;-59
2024/04/21 22:44:55;;;;;;;2.75;0.95;;;;;;;5.30;52.61;101052.72;10943177;26;20006;-60
2024/04/21 22:49:56;;;;;;;2.38;1.08;;;;;;;5.29;53.13;101057.22;10938752;26;20013;-60
2024/04/21 22:54:58;;;;;;;2.35;0.70;;;;;;;5.29;52.92;101048.34;10921077;26;20009;-60
2024/04/21 22:59:59;;;;;;;2.22;0.85;;;;;;;5.34;52.71;101062.16;10939839;26;20460;-60
2024/04/21 23:05:01;;;;;;;2.38;0.90;;;;;;;5.35;52.46;101054.06;10946567;26;20469;-59
2024/04/21 23:10:03;;;;;;;0.90;0.68;;;;;;;5.36;52.58;101054.91;10937874;26;19998;-60
2024/04/21 23:15:05;;;;;;;1.58;0.80;;;;;;;5.37;52.72;101064.56;10939618;26;19999;-60
2024/04/21 23:20:07;;;;;;;1.70;0.50;;;;;;;5.38;52.80;101060.94;10934335;26;20005;-60